createdAt,value
2022-07-25T00:04:01.760Z,62.52
2022-07-25T00:05:01.779Z,63.35
2022-07-25T00:07:05.697Z,63.76
2022-07-25T00:08:05.682Z,63.56
2022-07-25T00:10:09.697Z,62.45
2022-07-25T00:11:09.683Z,63.76
2022-07-25T00:13:13.727Z,64.26
2022-07-25T00:14:13.718Z,64.46
2022-07-25T00:16:17.822Z,64.26
2022-07-25T00:17:17.735Z,62.27
2022-07-25T00:19:10.698Z,64.46
2022-07-25T00:20:10.693Z,61.98
2022-07-25T00:22:03.631Z,64.29
2022-07-25T00:23:03.622Z,61.17
2022-07-25T00:24:56.575Z,62.18
2022-07-25T00:25:56.570Z,61.17
2022-07-25T00:27:49.678Z,59.66
2022-07-25T00:28:49.677Z,60.64
2022-07-25T00:30:42.788Z,58.42
2022-07-25T00:31:42.857Z,58.60
2022-07-25T00:33:35.911Z,58.09
2022-07-25T00:34:35.903Z,58.97
2022-07-25T00:36:29.024Z,57.37
2022-07-25T00:37:29.011Z,57.46
2022-07-25T00:39:21.926Z,56.66
2022-07-25T00:40:21.919Z,57.46
2022-07-25T00:41:21.923Z,56.66
2022-07-25T00:42:21.918Z,56.76
2022-07-25T00:43:21.915Z,56.99
2022-07-25T00:44:21.913Z,56.66
2022-07-25T00:45:21.921Z,57.37
2022-07-25T00:46:21.972Z,56.86
2022-07-25T00:47:21.907Z,56.66
2022-07-25T00:48:21.906Z,56.66
2022-07-25T00:49:21.906Z,56.86
2022-07-25T00:50:21.910Z,58.37
2022-07-25T00:51:21.902Z,58.47
2022-07-25T00:52:21.900Z,58.00
2022-07-25T00:53:21.898Z,57.77
2022-07-25T00:54:21.905Z,59.08
2022-07-25T00:55:21.896Z,57.67
2022-07-25T00:56:21.894Z,57.37
2022-07-25T00:57:21.907Z,58.00
2022-07-25T00:58:21.892Z,57.67
2022-07-25T00:59:21.889Z,59.30
2022-07-25T01:00:21.888Z,59.10
2022-07-25T01:01:21.924Z,58.90
2022-07-25T01:02:21.924Z,60.71
2022-07-25T01:03:21.881Z,60.41
2022-07-25T01:04:21.887Z,59.80
2022-07-25T01:05:21.881Z,58.20
2022-07-25T01:06:21.883Z,58.53
2022-07-25T01:07:21.875Z,58.62
2022-07-25T01:08:21.876Z,58.33
2022-07-25T01:09:21.882Z,58.62
2022-07-25T01:10:21.871Z,59.30
2022-07-25T01:11:21.868Z,58.42
2022-07-25T01:12:21.874Z,57.70
2022-07-25T01:13:21.859Z,59.00
2022-07-25T01:14:21.865Z,58.09
2022-07-25T01:15:21.861Z,58.09
2022-07-25T01:16:21.909Z,57.79
2022-07-25T01:17:21.860Z,57.59
2022-07-25T01:18:21.859Z,58.09
2022-07-25T01:19:21.853Z,58.00
2022-07-25T01:20:21.862Z,57.70
2022-07-25T01:21:21.854Z,57.90
2022-07-25T01:22:21.856Z,57.79
2022-07-25T01:23:21.852Z,57.50
2022-07-25T01:24:21.855Z,56.89
2022-07-25T01:25:21.846Z,57.37
2022-07-25T01:26:21.842Z,57.06
2022-07-25T01:27:21.843Z,57.06
2022-07-25T01:28:21.840Z,56.66
2022-07-25T01:29:21.841Z,57.57
2022-07-25T01:30:21.838Z,56.69
2022-07-25T01:31:21.903Z,56.99
2022-07-25T01:32:21.834Z,56.69
2022-07-25T01:33:21.834Z,57.39
2022-07-25T01:34:21.832Z,56.99
2022-07-25T01:35:21.828Z,56.69
2022-07-25T01:36:21.838Z,57.59
2022-07-25T01:37:21.821Z,57.29
2022-07-25T01:38:21.825Z,57.09
2022-07-25T01:39:21.821Z,56.99
2022-07-25T01:40:21.818Z,56.59
2022-07-25T01:41:22.472Z,56.59
2022-07-25T01:42:21.818Z,56.79
2022-07-25T01:43:21.924Z,57.59
2022-07-25T01:44:21.827Z,56.38
2022-07-25T01:45:21.814Z,57.50
2022-07-25T01:46:21.927Z,57.09
2022-07-25T01:47:21.811Z,56.99
2022-07-25T01:48:21.803Z,56.69
2022-07-25T01:49:21.805Z,56.89
2022-07-25T01:50:21.803Z,55.88
2022-07-25T01:51:21.803Z,56.19
2022-07-25T01:52:21.800Z,56.19
2022-07-25T01:53:21.802Z,55.99
2022-07-25T01:54:21.797Z,55.48
2022-07-25T01:55:21.799Z,55.99
2022-07-25T01:56:22.462Z,55.68
2022-07-25T01:57:21.790Z,56.29
2022-07-25T01:58:21.791Z,55.99
2022-07-25T01:59:21.793Z,55.99
2022-07-25T02:00:21.782Z,56.19
2022-07-25T02:01:22.188Z,56.79
2022-07-25T02:02:21.784Z,56.19
2022-07-25T02:03:21.804Z,56.29
2022-07-25T02:04:21.808Z,56.49
2022-07-25T02:05:21.785Z,56.79
2022-07-25T02:08:32.610Z,56.19
2022-07-25T02:08:53.424Z,56.59
2022-07-25T02:10:57.447Z,57.19
2022-07-25T02:11:57.425Z,55.68
2022-07-25T02:13:50.354Z,56.89
2022-07-25T02:14:50.346Z,56.69
2022-07-25T02:17:05.531Z,55.81
2022-07-25T02:18:05.418Z,56.09
2022-07-25T02:20:09.450Z,57.02
2022-07-25T02:21:14.124Z,56.92
2022-07-25T02:23:02.558Z,57.42
2022-07-25T02:24:02.938Z,57.22
2022-07-25T02:26:06.560Z,57.22
2022-07-25T02:27:06.539Z,58.12
2022-07-25T02:28:59.456Z,58.02
2022-07-25T02:29:59.449Z,57.92
2022-07-25T02:32:03.475Z,57.92
2022-07-25T02:33:03.462Z,57.62
2022-07-25T02:34:56.394Z,57.52
2022-07-25T02:35:56.389Z,57.45
2022-07-25T02:37:49.521Z,57.42
2022-07-25T02:38:49.511Z,57.22
2022-07-25T02:40:42.622Z,57.22
2022-07-25T02:41:42.610Z,57.72
2022-07-25T02:43:35.572Z,57.02
2022-07-25T02:44:35.564Z,57.32
2022-07-25T02:45:35.598Z,57.12
2022-07-25T02:46:35.613Z,57.02
2022-07-25T02:47:35.559Z,56.62
2022-07-25T02:48:35.618Z,57.42
2022-07-25T02:49:35.557Z,56.41
2022-07-25T02:50:35.557Z,56.92
2022-07-25T02:51:35.549Z,56.74
2022-07-25T02:52:35.551Z,57.42
2022-07-25T02:53:55.931Z,57.12
2022-07-25T02:54:35.548Z,57.62
2022-07-25T02:55:35.544Z,57.55
2022-07-25T02:56:35.544Z,57.35
2022-07-25T02:57:35.539Z,57.65
2022-07-25T02:58:35.537Z,57.75
2022-07-25T02:59:35.537Z,57.55
2022-07-25T03:00:35.536Z,57.95
2022-07-25T03:01:35.593Z,57.75
2022-07-25T03:02:35.529Z,58.75
2022-07-25T03:03:35.555Z,57.95
2022-07-25T03:04:35.580Z,58.95
2022-07-25T03:05:35.524Z,58.35
2022-07-25T03:06:35.526Z,59.26
2022-07-25T03:07:35.517Z,58.55
2022-07-25T03:08:35.520Z,58.45
2022-07-25T03:09:35.521Z,57.88
2022-07-25T03:10:35.516Z,57.98
2022-07-25T03:11:35.509Z,58.15
2022-07-25T03:12:35.512Z,57.78
2022-07-25T03:13:35.504Z,59.28
2022-07-25T03:14:35.504Z,58.75
2022-07-25T03:15:35.503Z,58.07
2022-07-25T03:16:35.557Z,57.95
2022-07-25T03:17:35.500Z,58.05
2022-07-25T03:18:35.509Z,59.26
2022-07-25T03:19:35.495Z,58.18
2022-07-25T03:20:35.495Z,58.05
2022-07-25T03:21:35.493Z,58.18
2022-07-25T03:22:35.493Z,58.05
2022-07-25T03:23:35.487Z,58.86
2022-07-25T03:24:35.514Z,57.95
2022-07-25T03:25:35.481Z,58.55
2022-07-25T03:26:35.478Z,58.35
2022-07-25T03:27:35.477Z,58.15
2022-07-25T03:28:35.473Z,58.48
2022-07-25T03:29:35.483Z,58.68
2022-07-25T03:30:35.498Z,58.45
2022-07-25T03:31:35.516Z,58.58
2022-07-25T03:32:35.475Z,58.55
2022-07-25T03:33:35.465Z,58.07
2022-07-25T03:34:35.463Z,59.66
2022-07-25T03:35:35.467Z,58.75
2022-07-25T03:36:35.458Z,58.48
2022-07-25T03:37:35.456Z,58.86
2022-07-25T03:38:35.467Z,58.78
2022-07-25T03:39:35.451Z,59.39
2022-07-25T03:40:35.456Z,58.98
2022-07-25T03:41:35.447Z,58.78
2022-07-25T03:42:35.799Z,58.68
2022-07-25T03:43:35.449Z,59.48
2022-07-25T03:44:35.442Z,58.88
2022-07-25T03:45:35.489Z,58.88
2022-07-25T03:46:35.437Z,58.98
2022-07-25T03:47:35.431Z,59.79
2022-07-25T03:48:35.454Z,58.88
2022-07-25T03:49:35.431Z,59.36
2022-07-25T03:50:35.436Z,59.36
2022-07-25T03:51:35.426Z,59.86
2022-07-25T03:52:35.431Z,59.36
2022-07-25T03:53:35.425Z,59.56
2022-07-25T03:54:35.422Z,58.55
2022-07-25T03:55:35.424Z,59.96
2022-07-25T03:56:35.418Z,59.26
2022-07-25T03:57:35.414Z,59.26
2022-07-25T03:58:35.422Z,60.16
2022-07-25T03:59:35.417Z,59.03
2022-07-25T04:00:35.407Z,59.23
2022-07-25T04:01:35.479Z,59.53
2022-07-25T04:02:35.418Z,58.80
2022-07-25T04:03:35.407Z,57.79
2022-07-25T04:04:35.398Z,57.46
2022-07-25T04:05:35.401Z,57.24
2022-07-25T04:06:35.404Z,56.96
2022-07-25T04:07:35.394Z,55.96
2022-07-25T04:08:35.393Z,55.66
2022-07-25T04:09:35.395Z,56.46
2022-07-25T04:10:35.386Z,55.93
2022-07-25T04:11:35.385Z,55.91
2022-07-25T04:12:35.386Z,54.95
2022-07-25T04:13:35.386Z,53.59
2022-07-25T04:14:35.391Z,52.37
2022-07-25T04:15:35.377Z,51.84
2022-07-25T04:16:35.401Z,51.44
2022-07-25T04:17:35.378Z,50.16
2022-07-25T04:18:35.374Z,52.47
2022-07-25T04:19:35.371Z,51.37
2022-07-25T04:20:35.371Z,51.27
2022-07-25T04:21:35.368Z,52.07
2022-07-25T04:22:35.367Z,50.87
2022-07-25T04:23:35.362Z,53.97
2022-07-25T04:24:35.363Z,51.87
2022-07-25T04:25:35.359Z,51.34
2022-07-25T04:26:35.365Z,50.22
2022-07-25T04:27:35.358Z,50.07
2022-07-25T04:28:35.356Z,50.42
2022-07-25T04:29:35.361Z,50.00
2022-07-25T04:30:35.362Z,47.16
2022-07-25T04:31:35.400Z,46.44
2022-07-25T04:32:35.356Z,45.62
2022-07-25T04:33:35.345Z,45.30
2022-07-25T04:34:35.346Z,45.18
2022-07-25T04:35:35.347Z,43.66
2022-07-25T04:36:35.346Z,43.16
2022-07-25T04:37:35.346Z,43.57
2022-07-25T04:38:35.348Z,44.66
2022-07-25T04:39:35.340Z,43.35
2022-07-25T04:40:35.342Z,44.52
2022-07-25T04:41:35.355Z,42.72
2022-07-25T04:42:35.343Z,43.01
2022-07-25T04:43:35.341Z,42.69
2022-07-25T04:44:35.339Z,42.66
2022-07-25T04:45:35.374Z,41.08
2022-07-25T04:46:35.345Z,41.26
2022-07-25T04:47:35.332Z,40.74
2022-07-25T04:48:35.450Z,40.03
2022-07-25T04:49:35.337Z,40.20
2022-07-25T04:50:35.339Z,39.02
2022-07-25T04:51:35.338Z,39.71
2022-07-25T04:52:35.346Z,39.10
2022-07-25T04:53:35.336Z,40.26
2022-07-25T04:54:35.337Z,37.48
2022-07-25T04:55:35.342Z,38.65
2022-07-25T04:56:35.347Z,36.25
2022-07-25T04:57:35.336Z,36.32
2022-07-25T04:58:35.336Z,36.42
2022-07-25T04:59:35.340Z,36.52
2022-07-25T05:00:35.389Z,35.22
2022-07-25T05:01:35.500Z,36.90
2022-07-25T05:02:35.396Z,35.10
2022-07-25T05:03:35.338Z,35.77
2022-07-25T05:04:35.339Z,34.48
2022-07-25T05:05:35.342Z,33.97
2022-07-25T05:06:35.343Z,34.13
2022-07-25T05:07:35.346Z,32.65
2022-07-25T05:08:35.352Z,33.44
2022-07-25T05:09:35.344Z,33.25
2022-07-25T05:10:35.347Z,32.05
2022-07-25T05:11:35.347Z,32.64
2022-07-25T05:12:35.358Z,32.05
2022-07-25T05:13:35.350Z,32.34
2022-07-25T05:14:35.353Z,32.05
2022-07-25T05:15:35.350Z,31.67
2022-07-25T05:16:35.395Z,32.64
2022-07-25T05:17:35.356Z,32.33
2022-07-25T05:18:35.366Z,32.71
2022-07-25T05:19:35.356Z,30.66
2022-07-25T05:20:35.358Z,32.76
2022-07-25T05:21:35.363Z,34.23
2022-07-25T05:22:35.365Z,32.54
2022-07-25T05:23:35.367Z,33.22
2022-07-25T05:24:35.371Z,32.23
2022-07-25T05:25:35.372Z,32.33
2022-07-25T05:26:35.382Z,31.73
2022-07-25T05:27:35.382Z,32.31
2022-07-25T05:28:35.375Z,31.61
2022-07-25T05:29:35.379Z,31.73
2022-07-25T05:30:39.441Z,32.21
2022-07-25T05:31:35.441Z,32.18
2022-07-25T05:32:35.393Z,30.30
2022-07-25T05:33:35.388Z,29.02
2022-07-25T05:34:35.390Z,29.53
2022-07-25T05:35:35.393Z,31.99
2022-07-25T05:36:35.398Z,29.93
2022-07-25T05:37:35.400Z,30.50
2022-07-25T05:38:35.405Z,30.58
2022-07-25T05:39:35.397Z,30.27
2022-07-25T05:40:35.405Z,30.57
2022-07-25T05:41:35.402Z,29.50
2022-07-25T05:42:35.408Z,29.20
2022-07-25T05:43:35.413Z,29.30
2022-07-25T05:44:35.422Z,29.30
2022-07-25T05:45:35.417Z,30.96
2022-07-25T05:46:35.549Z,29.18
2022-07-25T05:47:35.423Z,30.54
2022-07-25T05:48:35.477Z,29.45
2022-07-25T05:49:35.433Z,30.13
2022-07-25T05:50:35.434Z,28.38
2022-07-25T05:51:35.436Z,29.16
2022-07-25T05:52:35.438Z,28.96
2022-07-25T05:53:35.445Z,30.35
2022-07-25T05:54:35.443Z,29.25
2022-07-25T05:55:35.459Z,28.08
2022-07-25T05:56:35.455Z,28.36
2022-07-25T05:57:35.463Z,29.32
2022-07-25T05:58:35.457Z,29.42
2022-07-25T05:59:35.460Z,27.08
2022-07-25T06:00:35.464Z,27.27
2022-07-25T06:01:35.516Z,27.65
2022-07-25T06:02:35.682Z,28.52
2022-07-25T06:03:35.473Z,26.77
2022-07-25T06:04:35.478Z,28.82
2022-07-25T06:05:35.482Z,27.45
2022-07-25T06:06:35.484Z,28.81
2022-07-25T06:07:35.486Z,27.45
2022-07-25T06:08:35.491Z,27.15
2022-07-25T06:09:35.495Z,27.34
2022-07-25T06:10:35.501Z,26.74
2022-07-25T06:11:35.501Z,27.62
2022-07-25T06:12:36.694Z,27.93
2022-07-25T06:13:35.511Z,26.93
2022-07-25T06:14:35.515Z,28.29
2022-07-25T06:15:35.518Z,26.73
2022-07-25T06:16:35.623Z,27.90
2022-07-25T06:17:35.539Z,26.64
2022-07-25T06:18:35.531Z,27.42
2022-07-25T06:19:35.536Z,28.50
2022-07-25T06:20:35.544Z,27.81
2022-07-25T06:21:35.548Z,27.02
2022-07-25T06:22:35.554Z,26.53
2022-07-25T06:23:35.556Z,26.93
2022-07-25T06:24:35.565Z,27.41
2022-07-25T06:25:35.563Z,26.72
2022-07-25T06:26:35.569Z,26.72
2022-07-25T06:27:35.570Z,26.41
2022-07-25T06:28:35.578Z,26.40
2022-07-25T06:29:35.610Z,26.30
2022-07-25T06:30:35.594Z,25.91
2022-07-25T06:31:35.670Z,27.86
2022-07-25T06:32:35.606Z,27.76
2022-07-25T06:33:35.605Z,25.99
2022-07-25T06:34:35.609Z,27.54
2022-07-25T06:35:35.614Z,25.09
2022-07-25T06:36:35.640Z,25.18
2022-07-25T06:37:35.622Z,26.64
2022-07-25T06:38:35.629Z,26.46
2022-07-25T06:39:35.639Z,25.69
2022-07-25T06:40:35.641Z,26.31
2022-07-25T06:41:35.646Z,26.40
2022-07-25T06:42:35.650Z,26.20
2022-07-25T06:43:35.658Z,26.29
2022-07-25T06:44:35.664Z,25.41
2022-07-25T06:45:35.669Z,25.99
2022-07-25T06:46:35.698Z,28.75
2022-07-25T06:47:36.232Z,26.70
2022-07-25T06:48:35.737Z,29.15
2022-07-25T06:49:35.713Z,26.98
2022-07-25T06:50:35.716Z,26.69
2022-07-25T06:51:35.708Z,27.93
2022-07-25T06:52:35.718Z,26.07
2022-07-25T06:53:35.728Z,26.26
2022-07-25T06:54:35.748Z,25.76
2022-07-25T06:55:35.736Z,24.69
2022-07-25T06:56:35.742Z,25.67
2022-07-25T06:57:35.750Z,26.14
2022-07-25T06:58:35.752Z,26.81
2022-07-25T06:59:35.760Z,26.60
2022-07-25T07:00:35.814Z,25.26
2022-07-25T07:01:35.779Z,26.17
2022-07-25T07:02:35.784Z,26.17
2022-07-25T07:03:35.827Z,27.83
2022-07-25T07:04:35.802Z,26.29
2022-07-25T07:05:35.802Z,26.57
2022-07-25T07:06:35.809Z,26.28
2022-07-25T07:07:35.820Z,26.83
2022-07-25T07:08:35.827Z,25.75
2022-07-25T07:09:35.830Z,24.96
2022-07-25T07:10:35.839Z,25.56
2022-07-25T07:11:35.847Z,26.90
2022-07-25T07:12:35.849Z,25.23
2022-07-25T07:13:35.920Z,26.18
2022-07-25T07:14:35.868Z,25.10
2022-07-25T07:15:35.878Z,24.32
2022-07-25T07:16:35.928Z,24.13
2022-07-25T07:17:35.895Z,26.26
2022-07-25T07:18:35.907Z,24.12
2022-07-25T07:19:35.904Z,24.23
2022-07-25T07:20:35.911Z,24.62
2022-07-25T07:21:35.919Z,24.52
2022-07-25T07:22:35.925Z,26.28
2022-07-25T07:23:35.932Z,25.13
2022-07-25T07:24:38.839Z,25.13
2022-07-25T07:25:35.968Z,25.04
2022-07-25T07:26:35.955Z,25.53
2022-07-25T07:27:35.965Z,25.05
2022-07-25T07:28:35.973Z,25.56
2022-07-25T07:29:35.978Z,25.95
2022-07-25T07:31:05.570Z,26.34
2022-07-25T07:31:36.073Z,27.58
2022-07-25T07:32:36.001Z,25.81
2022-07-25T07:33:36.008Z,25.92
2022-07-25T07:34:36.037Z,25.24
2022-07-25T07:35:36.107Z,26.59
2022-07-25T07:36:36.032Z,26.79
2022-07-25T07:37:40.146Z,26.50
2022-07-25T07:38:36.058Z,24.76
2022-07-25T07:39:36.060Z,25.53
2022-07-25T07:40:36.066Z,26.97
2022-07-25T07:41:36.076Z,24.44
2022-07-25T07:42:36.084Z,24.27
2022-07-25T07:43:36.089Z,26.12
2022-07-25T07:44:36.100Z,25.04
2022-07-25T07:45:36.105Z,25.13
2022-07-25T07:46:36.192Z,26.76
2022-07-25T07:47:36.131Z,25.88
2022-07-25T07:48:36.181Z,24.71
2022-07-25T07:49:36.873Z,24.21
2022-07-25T07:50:36.157Z,23.61
2022-07-25T07:51:36.158Z,25.07
2022-07-25T07:52:36.167Z,23.05
2022-07-25T07:53:36.177Z,24.21
2022-07-25T07:54:36.178Z,23.63
2022-07-25T07:55:36.187Z,24.98
2022-07-25T07:56:36.200Z,24.51
2022-07-25T07:57:36.207Z,24.21
2022-07-25T07:58:36.215Z,25.16
2022-07-25T07:59:36.221Z,23.42
2022-07-25T08:00:36.231Z,23.81
2022-07-25T08:01:36.259Z,23.60
2022-07-25T08:02:36.308Z,23.41
2022-07-25T08:03:36.252Z,24.95
2022-07-25T08:04:36.267Z,24.48
2022-07-25T08:05:36.279Z,23.52
2022-07-25T08:06:36.299Z,23.91
2022-07-25T08:07:36.291Z,23.50
2022-07-25T08:08:36.311Z,25.15
2022-07-25T08:09:36.312Z,22.84
2022-07-25T08:10:36.316Z,24.09
2022-07-25T08:11:36.327Z,23.70
2022-07-25T08:12:36.332Z,23.21
2022-07-25T08:13:36.338Z,23.30
2022-07-25T08:14:36.352Z,24.46
2022-07-25T08:15:36.388Z,24.54
2022-07-25T08:16:36.444Z,22.60
2022-07-25T08:17:36.376Z,23.29
2022-07-25T08:18:36.386Z,22.31
2022-07-25T08:19:36.393Z,22.80
2022-07-25T08:20:38.347Z,23.96
2022-07-25T08:21:36.411Z,24.91
2022-07-25T08:22:36.418Z,22.67
2022-07-25T08:23:36.428Z,22.02
2022-07-25T08:24:36.437Z,22.42
2022-07-25T08:25:36.445Z,24.28
2022-07-25T08:26:36.452Z,24.40
2022-07-25T08:27:36.460Z,24.50
2022-07-25T08:28:36.466Z,25.40
2022-07-25T08:29:36.473Z,25.49
2022-07-25T08:30:36.495Z,26.49
2022-07-25T08:31:36.606Z,26.82
2022-07-25T08:32:36.495Z,28.50
2022-07-25T08:33:36.507Z,28.80
2022-07-25T08:34:36.517Z,28.55
2022-07-25T08:35:36.517Z,29.67
2022-07-25T08:36:36.523Z,30.76
2022-07-25T08:37:36.532Z,31.64
2022-07-25T08:38:36.537Z,31.75
2022-07-25T08:39:36.544Z,31.29
2022-07-25T08:40:36.549Z,31.98
2022-07-25T08:41:36.554Z,31.90
2022-07-25T08:42:36.560Z,32.89
2022-07-25T08:43:36.566Z,33.22
2022-07-25T08:44:36.577Z,33.80
2022-07-25T08:45:36.577Z,33.61
2022-07-25T08:46:36.648Z,33.62
2022-07-25T08:47:36.588Z,34.51
2022-07-25T08:48:36.642Z,35.60
2022-07-25T08:49:36.601Z,34.93
2022-07-25T08:50:36.607Z,34.64
2022-07-25T08:51:36.609Z,34.74
2022-07-25T08:52:36.614Z,35.82
2022-07-25T08:53:36.667Z,35.13
2022-07-25T08:54:36.626Z,35.23
2022-07-25T08:55:36.632Z,36.19
2022-07-25T08:56:36.637Z,34.90
2022-07-25T08:57:36.638Z,34.01
2022-07-25T08:58:36.652Z,33.80
2022-07-25T08:59:36.654Z,33.77
2022-07-25T09:00:36.658Z,32.95
2022-07-25T09:01:36.737Z,32.55
2022-07-25T09:02:36.715Z,32.52
2022-07-25T09:03:36.697Z,32.01
2022-07-25T09:04:36.679Z,31.59
2022-07-25T09:05:37.017Z,30.13
2022-07-25T09:06:36.699Z,30.03
2022-07-25T09:07:36.696Z,31.10
2022-07-25T09:08:36.703Z,30.10
2022-07-25T09:09:36.711Z,30.11
2022-07-25T09:10:36.714Z,30.71
2022-07-25T09:11:36.720Z,29.46
2022-07-25T09:12:36.726Z,31.84
2022-07-25T09:13:36.735Z,32.35
2022-07-25T09:14:36.736Z,32.17
2022-07-25T09:15:36.811Z,32.87
2022-07-25T09:16:36.749Z,33.38
2022-07-25T09:17:36.755Z,35.55
2022-07-25T09:18:36.759Z,34.00
2022-07-25T09:19:36.759Z,34.90
2022-07-25T09:20:36.767Z,35.19
2022-07-25T09:21:36.769Z,36.86
2022-07-25T09:22:36.777Z,36.39
2022-07-25T09:23:36.778Z,36.49
2022-07-25T09:24:36.882Z,35.60
2022-07-25T09:25:36.793Z,35.13
2022-07-25T09:26:36.795Z,36.01
2022-07-25T09:27:36.795Z,37.48
2022-07-25T09:28:36.803Z,36.51
2022-07-25T09:29:36.806Z,36.01
2022-07-25T09:30:36.814Z,37.30
2022-07-25T09:31:36.888Z,37.01
2022-07-25T09:32:36.818Z,37.38
2022-07-25T09:33:36.825Z,37.30
2022-07-25T09:34:36.830Z,37.11
2022-07-25T09:35:36.831Z,37.01
2022-07-25T09:36:36.906Z,36.91
2022-07-25T09:37:36.841Z,37.62
2022-07-25T09:38:36.865Z,37.30
2022-07-25T09:39:38.739Z,37.62
2022-07-25T09:40:36.856Z,37.62
2022-07-25T09:41:36.860Z,37.44
2022-07-25T09:42:36.865Z,37.63
2022-07-25T09:43:36.867Z,37.34
2022-07-25T09:44:36.878Z,38.13
2022-07-25T09:45:36.877Z,37.62
2022-07-25T09:46:36.924Z,38.52
2022-07-25T09:47:36.891Z,38.50
2022-07-25T09:48:36.909Z,38.31
2022-07-25T09:49:36.890Z,38.11
2022-07-25T09:50:36.897Z,38.40
2022-07-25T09:51:36.901Z,37.62
2022-07-25T09:52:36.917Z,37.92
2022-07-25T09:53:36.908Z,38.90
2022-07-25T09:54:36.911Z,38.40
2022-07-25T09:55:36.922Z,38.01
2022-07-25T09:56:36.926Z,37.92
2022-07-25T09:57:36.934Z,40.47
2022-07-25T09:58:36.930Z,38.90
2022-07-25T09:59:36.932Z,38.32
2022-07-25T10:00:36.935Z,38.03
2022-07-25T10:01:37.027Z,40.39
2022-07-25T10:02:36.982Z,38.13
2022-07-25T10:03:36.947Z,38.13
2022-07-25T10:04:36.953Z,38.72
2022-07-25T10:05:36.955Z,40.19
2022-07-25T10:06:36.965Z,39.60
2022-07-25T10:07:36.960Z,39.11
2022-07-25T10:08:36.966Z,38.50
2022-07-25T10:09:36.966Z,38.62
2022-07-25T10:10:36.973Z,38.31
2022-07-25T10:11:36.976Z,39.01
2022-07-25T10:12:36.984Z,38.62
2022-07-25T10:13:36.987Z,38.62
2022-07-25T10:14:36.991Z,38.50
2022-07-25T10:15:36.997Z,38.31
2022-07-25T10:16:37.068Z,38.39
2022-07-25T10:17:36.999Z,37.70
2022-07-25T10:18:37.006Z,37.70
2022-07-25T10:19:37.009Z,38.68
2022-07-25T10:20:37.013Z,38.78
2022-07-25T10:21:37.019Z,38.66
2022-07-25T10:22:55.234Z,38.17
2022-07-25T10:23:37.030Z,36.70
2022-07-25T10:24:37.027Z,37.96
2022-07-25T10:25:37.032Z,37.37
2022-07-25T10:26:37.066Z,36.78
2022-07-25T10:27:37.042Z,37.07
2022-07-25T10:28:37.045Z,37.37
2022-07-25T10:29:37.049Z,37.17
2022-07-25T10:30:37.107Z,36.80
2022-07-25T10:31:37.054Z,36.90
2022-07-25T10:32:37.059Z,37.58
2022-07-25T10:33:37.067Z,37.29
2022-07-25T10:34:37.068Z,36.30
2022-07-25T10:35:37.075Z,37.38
2022-07-25T10:36:37.076Z,37.88
2022-07-25T10:37:37.080Z,37.98
2022-07-25T10:38:37.083Z,37.46
2022-07-25T10:39:37.098Z,37.56
2022-07-25T10:40:37.095Z,36.66
2022-07-25T10:41:37.094Z,36.37
2022-07-25T10:42:37.097Z,37.23
2022-07-25T10:43:37.101Z,36.06
2022-07-25T10:44:37.107Z,36.25
2022-07-25T10:45:38.482Z,35.37
2022-07-25T10:46:37.192Z,35.17
2022-07-25T10:47:37.128Z,35.47
2022-07-25T10:48:37.179Z,35.37
2022-07-25T10:49:37.512Z,35.47
2022-07-25T10:50:55.016Z,36.45
2022-07-25T10:51:41.600Z,35.96
2022-07-25T10:52:37.136Z,36.25
2022-07-25T10:53:37.145Z,35.96
2022-07-25T10:54:37.151Z,36.35
2022-07-25T10:55:37.164Z,35.57
2022-07-25T10:56:37.157Z,34.67
2022-07-25T10:57:49.588Z,35.45
2022-07-25T10:58:37.166Z,35.75
2022-07-25T10:59:37.164Z,36.82
2022-07-25T11:00:37.174Z,34.96
2022-07-25T11:01:37.213Z,34.57
2022-07-25T11:02:37.227Z,36.14
2022-07-25T11:03:37.199Z,33.39
2022-07-25T11:04:37.198Z,33.98
2022-07-25T11:05:37.194Z,33.79
2022-07-25T11:06:37.200Z,33.39
2022-07-25T11:07:37.214Z,34.26
2022-07-25T11:08:37.206Z,34.26
2022-07-25T11:09:37.215Z,34.24
2022-07-25T11:10:37.217Z,33.95
2022-07-25T11:11:37.220Z,33.48
2022-07-25T11:12:37.222Z,33.28
2022-07-25T11:13:37.230Z,33.97
2022-07-25T11:14:37.234Z,33.98
2022-07-25T11:15:37.244Z,33.50
2022-07-25T11:16:37.326Z,34.84
2022-07-25T11:17:37.242Z,34.26
2022-07-25T11:18:37.251Z,33.87
2022-07-25T11:19:37.250Z,33.38
2022-07-25T11:20:37.256Z,34.55
2022-07-25T11:21:37.262Z,34.16
2022-07-25T11:22:37.267Z,33.36
2022-07-25T11:23:37.269Z,34.26
2022-07-25T11:24:37.278Z,33.95
2022-07-25T11:25:37.280Z,34.26
2022-07-25T11:26:37.285Z,35.93
2022-07-25T11:27:37.288Z,33.38
2022-07-25T11:28:37.293Z,34.65
2022-07-25T11:29:37.297Z,35.83
2022-07-25T11:30:37.305Z,34.34
2022-07-25T11:31:37.339Z,34.54
2022-07-25T11:32:37.314Z,34.23
2022-07-25T11:33:38.871Z,34.42
2022-07-25T11:34:37.344Z,34.21
2022-07-25T11:35:37.328Z,33.92
2022-07-25T11:36:37.331Z,32.55
2022-07-25T11:37:37.337Z,32.53
2022-07-25T11:38:37.341Z,31.77
2022-07-25T11:39:37.347Z,32.55
2022-07-25T11:40:37.348Z,33.33
2022-07-25T11:41:37.358Z,33.80
2022-07-25T11:42:37.361Z,32.65
2022-07-25T11:43:37.367Z,31.75
2022-07-25T11:44:37.376Z,31.85
2022-07-25T11:45:37.465Z,33.31
2022-07-25T11:46:37.445Z,32.23
2022-07-25T11:47:37.384Z,31.45
2022-07-25T11:48:37.448Z,32.91
2022-07-25T11:49:37.393Z,32.23
2022-07-25T11:50:37.402Z,32.32
2022-07-25T11:51:37.403Z,31.54
2022-07-25T11:52:37.406Z,31.93
2022-07-25T11:53:37.410Z,32.03
2022-07-25T11:54:37.420Z,29.49
2022-07-25T11:55:37.425Z,29.57
2022-07-25T11:56:42.853Z,30.08
2022-07-25T11:57:37.436Z,30.86
2022-07-25T11:58:37.444Z,30.65
2022-07-25T11:59:37.444Z,30.84
2022-07-25T12:00:37.453Z,29.96
2022-07-25T12:01:37.453Z,31.52
2022-07-25T12:02:37.589Z,30.15
2022-07-25T12:03:37.544Z,31.51
2022-07-25T12:04:37.466Z,30.83
2022-07-25T12:05:37.473Z,30.63
2022-07-25T12:06:37.480Z,29.46
2022-07-25T12:07:37.483Z,29.85
2022-07-25T12:08:37.487Z,30.15
2022-07-25T12:09:37.495Z,31.31
2022-07-25T12:10:37.500Z,30.22
2022-07-25T12:11:37.504Z,31.10
2022-07-25T12:12:37.510Z,30.03
2022-07-25T12:13:37.513Z,29.06
2022-07-25T12:14:37.521Z,30.34
2022-07-25T12:15:37.525Z,30.63
2022-07-25T12:16:37.607Z,29.95
2022-07-25T12:17:37.539Z,30.24
2022-07-25T12:18:37.540Z,29.86
2022-07-25T12:19:37.549Z,30.16
2022-07-25T12:20:37.554Z,29.77
2022-07-25T12:21:37.558Z,31.04
2022-07-25T12:22:37.564Z,30.08
2022-07-25T12:23:37.569Z,32.52
2022-07-25T12:24:37.580Z,30.96
2022-07-25T12:25:37.582Z,31.05
2022-07-25T12:26:37.587Z,29.88
2022-07-25T12:27:37.590Z,29.88
2022-07-25T12:28:37.600Z,30.57
2022-07-25T12:29:37.604Z,30.68
2022-07-25T12:30:37.674Z,31.07
2022-07-25T12:31:37.613Z,30.29
2022-07-25T12:32:37.618Z,31.65
2022-07-25T12:33:37.632Z,30.09
2022-07-25T12:34:37.631Z,31.15
2022-07-25T12:35:37.651Z,30.27
2022-07-25T12:36:37.639Z,30.18
2022-07-25T12:37:37.643Z,31.16
2022-07-25T12:38:37.651Z,30.69
2022-07-25T12:39:37.655Z,30.20
2022-07-25T12:40:37.663Z,30.79
2022-07-25T12:41:37.670Z,30.77
2022-07-25T12:42:37.680Z,31.54
2022-07-25T12:43:37.678Z,30.27
2022-07-25T12:44:37.679Z,30.94
2022-07-25T12:45:37.756Z,30.16
2022-07-25T12:46:37.691Z,30.63
2022-07-25T12:47:37.702Z,27.89
2022-07-25T12:48:37.757Z,28.38
2022-07-25T12:49:37.729Z,28.47
2022-07-25T12:50:37.713Z,28.07
2022-07-25T12:51:37.720Z,29.14
2022-07-25T12:52:37.724Z,28.36
2022-07-25T12:53:41.995Z,30.02
2022-07-25T12:54:37.735Z,29.14
2022-07-25T12:55:37.741Z,28.75
2022-07-25T12:56:37.741Z,29.82
2022-07-25T12:57:37.757Z,28.45
2022-07-25T12:58:37.763Z,28.77
2022-07-25T12:59:37.763Z,29.43
2022-07-25T13:00:37.784Z,29.06
2022-07-25T13:01:37.905Z,30.22
2022-07-25T13:02:37.832Z,29.35
2022-07-25T13:03:37.786Z,28.85
2022-07-25T13:04:37.785Z,29.04
2022-07-25T13:05:37.809Z,29.82
2022-07-25T13:06:38.866Z,29.04
2022-07-25T13:07:37.807Z,28.94
2022-07-25T13:08:37.831Z,29.82
2022-07-25T13:09:37.819Z,29.82
2022-07-25T13:10:37.822Z,28.85
2022-07-25T13:11:37.828Z,28.85
2022-07-25T13:12:37.833Z,29.92
2022-07-25T13:13:37.845Z,29.14
2022-07-25T13:14:37.850Z,29.14
2022-07-25T13:15:37.857Z,28.94
2022-07-25T13:16:38.057Z,28.94
2022-07-25T13:17:37.868Z,28.85
2022-07-25T13:18:37.870Z,29.33
2022-07-25T13:19:37.878Z,29.82
2022-07-25T13:20:37.896Z,29.82